createdAt,value
2022-10-17T00:02:35.168Z,13.45
2022-10-17T00:05:03.634Z,13.40
2022-10-17T00:07:30.818Z,13.36
2022-10-17T00:09:58.442Z,13.37
2022-10-17T00:12:26.052Z,13.31
2022-10-17T00:14:52.940Z,13.28
2022-10-17T00:17:20.625Z,13.27
2022-10-17T00:19:48.060Z,13.25
2022-10-17T00:22:17.441Z,13.21
2022-10-17T00:24:44.975Z,13.22
2022-10-17T00:27:12.503Z,13.22
2022-10-17T00:29:40.211Z,13.20
2022-10-17T00:32:07.696Z,13.21
2022-10-17T00:34:35.280Z,13.23
2022-10-17T00:37:02.785Z,13.23
2022-10-17T00:39:30.496Z,13.22
2022-10-17T00:41:58.824Z,13.21
2022-10-17T00:44:32.387Z,13.17
2022-10-17T00:47:04.661Z,13.20
2022-10-17T00:49:36.958Z,13.20
2022-10-17T00:52:16.405Z,13.15
2022-10-17T00:54:45.835Z,13.14
2022-10-17T00:57:13.222Z,13.16
2022-10-17T00:59:41.745Z,13.14
2022-10-17T01:02:10.239Z,13.22
2022-10-17T01:04:37.766Z,13.11
2022-10-17T01:07:04.805Z,13.03
2022-10-17T01:09:31.555Z,13.01
2022-10-17T01:12:02.414Z,12.99
2022-10-17T01:14:52.015Z,13.01
2022-10-17T01:17:29.415Z,13.03
2022-10-17T01:20:07.204Z,12.97
2022-10-17T01:22:39.128Z,12.91
2022-10-17T01:25:07.526Z,12.92
2022-10-17T01:27:43.266Z,12.90
2022-10-17T01:30:11.560Z,12.91
2022-10-17T01:32:40.846Z,12.82
2022-10-17T01:35:29.703Z,12.81
2022-10-17T01:38:10.600Z,12.78
2022-10-17T01:40:41.969Z,12.97
2022-10-17T01:43:15.339Z,12.80
2022-10-17T01:45:53.411Z,12.75
2022-10-17T01:48:23.317Z,12.79
2022-10-17T01:51:10.275Z,12.87
2022-10-17T01:53:42.618Z,12.79
2022-10-17T01:56:11.656Z,12.76
2022-10-17T01:59:00.170Z,12.80
2022-10-17T02:01:30.847Z,12.91
2022-10-17T02:04:02.157Z,12.76
2022-10-17T02:06:34.043Z,12.79
2022-10-17T02:09:03.395Z,12.81
2022-10-17T02:11:30.715Z,12.79
2022-10-17T02:14:19.000Z,12.77
2022-10-17T02:16:49.243Z,12.73
2022-10-17T02:19:27.244Z,12.69
2022-10-17T02:22:02.730Z,12.69
2022-10-17T02:24:30.660Z,12.69
2022-10-17T02:27:11.964Z,12.64
2022-10-17T02:29:52.846Z,12.58
2022-10-17T02:32:38.974Z,12.61
2022-10-17T02:35:10.670Z,12.67
2022-10-17T02:37:38.862Z,12.57
2022-10-17T02:40:07.430Z,12.52
2022-10-17T02:42:39.793Z,12.51
2022-10-17T02:45:07.470Z,12.45
2022-10-17T02:47:41.726Z,12.50
2022-10-17T02:50:09.358Z,12.48
2022-10-17T02:52:52.393Z,12.46
2022-10-17T02:55:40.195Z,12.44
2022-10-17T02:58:24.151Z,12.41
2022-10-17T03:01:07.618Z,12.37
2022-10-17T03:03:50.234Z,12.45
2022-10-17T03:06:33.542Z,12.43
2022-10-17T03:09:15.594Z,12.37
2022-10-17T03:11:58.414Z,12.52
2022-10-17T03:14:40.782Z,12.36
2022-10-17T03:17:23.119Z,12.36
2022-10-17T03:20:08.750Z,12.29
2022-10-17T03:22:51.076Z,12.27
2022-10-17T03:25:33.540Z,12.35
2022-10-17T03:28:15.103Z,12.30
2022-10-17T03:30:57.442Z,12.26
2022-10-17T03:33:41.830Z,12.36
2022-10-17T03:36:24.865Z,12.31
2022-10-17T03:39:06.712Z,12.28
2022-10-17T03:41:50.955Z,12.24
2022-10-17T03:44:33.480Z,12.39
2022-10-17T03:47:15.983Z,12.29
2022-10-17T03:50:00.038Z,12.24
2022-10-17T03:52:49.626Z,12.26
2022-10-17T03:55:32.782Z,12.33
2022-10-17T03:58:15.578Z,12.25
2022-10-17T04:00:57.356Z,12.26
2022-10-17T04:03:41.598Z,12.20
2022-10-17T04:06:25.066Z,12.24
2022-10-17T04:09:07.730Z,12.11
2022-10-17T04:12:13.038Z,12.11
2022-10-17T04:14:54.886Z,12.14
2022-10-17T04:17:38.410Z,12.08
2022-10-17T04:20:23.024Z,12.04
2022-10-17T04:23:05.593Z,12.00
2022-10-17T04:25:50.019Z,11.99
2022-10-17T04:28:32.574Z,11.93
2022-10-17T04:31:15.630Z,11.92
2022-10-17T04:34:21.905Z,11.89
2022-10-17T04:37:08.565Z,11.86
2022-10-17T04:39:52.372Z,11.88
2022-10-17T04:42:38.815Z,11.87
2022-10-17T04:45:24.537Z,11.83
2022-10-17T04:48:12.806Z,11.82
2022-10-17T04:50:55.672Z,11.84
2022-10-17T04:53:48.821Z,11.77
2022-10-17T04:56:31.737Z,11.79
2022-10-17T04:59:17.816Z,11.73
2022-10-17T05:02:08.129Z,11.74
2022-10-17T05:04:55.584Z,11.74
2022-10-17T05:07:44.965Z,11.73
2022-10-17T05:10:44.322Z,11.74
2022-10-17T05:13:32.636Z,11.74
2022-10-17T05:16:19.955Z,11.74
2022-10-17T05:19:05.498Z,11.82
2022-10-17T05:21:58.261Z,11.80
2022-10-17T05:24:43.915Z,11.82
2022-10-17T05:27:39.237Z,11.83
2022-10-17T05:30:26.562Z,11.83
2022-10-17T05:33:17.226Z,11.89
2022-10-17T05:36:04.781Z,11.92
2022-10-17T05:38:51.657Z,11.98
2022-10-17T05:41:38.263Z,11.97
2022-10-17T05:44:24.241Z,12.10
2022-10-17T05:47:15.168Z,12.20
2022-10-17T05:50:02.290Z,12.46
2022-10-17T05:53:00.372Z,12.68
2022-10-17T05:55:54.998Z,12.88
2022-10-17T05:58:52.575Z,13.08
2022-10-17T06:01:54.635Z,13.12
2022-10-17T06:04:45.418Z,13.30
2022-10-17T06:07:33.468Z,13.42
2022-10-17T06:10:20.756Z,13.58
2022-10-17T06:13:07.545Z,13.73
2022-10-17T06:15:54.726Z,14.09
2022-10-17T06:18:40.228Z,14.43
2022-10-17T06:21:27.571Z,14.57
2022-10-17T06:24:23.509Z,14.73
2022-10-17T06:27:15.112Z,14.86
2022-10-17T06:30:04.970Z,15.05
2022-10-17T06:32:52.274Z,15.31
2022-10-17T06:35:39.862Z,15.52
2022-10-17T06:38:26.656Z,15.50
2022-10-17T06:41:15.853Z,15.63
2022-10-17T06:44:10.446Z,15.43
2022-10-17T06:47:16.642Z,15.66
2022-10-17T06:50:06.345Z,15.99
2022-10-17T06:53:02.361Z,16.26
2022-10-17T06:56:11.837Z,16.17
2022-10-17T06:59:20.489Z,16.33
2022-10-17T07:02:19.211Z,16.56
2022-10-17T07:05:05.332Z,16.56
2022-10-17T07:07:53.924Z,16.94
2022-10-17T07:10:40.019Z,16.77
2022-10-17T07:13:26.877Z,16.89
2022-10-17T07:16:14.659Z,17.10
2022-10-17T07:19:01.374Z,17.21
2022-10-17T07:21:56.473Z,17.26
2022-10-17T07:28:04.842Z,17.48
2022-10-17T07:30:53.779Z,17.60
2022-10-17T07:33:42.230Z,17.73
2022-10-17T07:36:31.132Z,17.72
2022-10-17T07:39:26.150Z,17.86
2022-10-17T07:42:15.400Z,17.83
2022-10-17T07:45:04.679Z,17.55
2022-10-17T07:48:15.593Z,17.83
2022-10-17T07:51:04.658Z,18.00
2022-10-17T07:53:51.631Z,18.00
2022-10-17T07:56:37.382Z,18.25
2022-10-17T07:59:23.736Z,18.26
2022-10-17T08:02:29.294Z,18.28
2022-10-17T08:05:15.138Z,18.36
2022-10-17T08:08:05.423Z,18.31
2022-10-17T08:10:54.515Z,18.32
2022-10-17T08:13:42.376Z,18.53
2022-10-17T08:16:28.181Z,18.55
2022-10-17T08:19:14.576Z,18.76
2022-10-17T08:22:05.234Z,18.87
2022-10-17T08:24:53.511Z,18.94
2022-10-17T08:27:41.833Z,19.03
2022-10-17T08:30:31.925Z,19.14
2022-10-17T08:33:18.015Z,19.18
2022-10-17T08:36:05.878Z,19.07
2022-10-17T08:38:53.995Z,19.03
2022-10-17T08:41:47.398Z,19.29
2022-10-17T08:44:43.339Z,19.10
2022-10-17T08:47:34.053Z,19.24
2022-10-17T08:50:30.086Z,19.33
2022-10-17T08:53:16.600Z,19.50
2022-10-17T08:59:35.631Z,19.54
2022-10-17T09:02:58.460Z,19.58
2022-10-17T09:05:57.215Z,19.63
2022-10-17T09:09:04.718Z,19.65
2022-10-17T09:11:53.826Z,19.64
2022-10-17T09:14:42.353Z,19.55
2022-10-17T09:17:40.611Z,19.64
2022-10-17T09:20:35.538Z,19.67
2022-10-17T09:23:27.831Z,19.70
2022-10-17T09:26:17.941Z,19.64
2022-10-17T09:29:04.189Z,19.49
2022-10-17T09:34:44.933Z,19.34
2022-10-17T09:37:33.324Z,19.34
2022-10-17T09:40:25.201Z,19.36
2022-10-17T09:43:12.911Z,19.40
2022-10-17T09:46:04.622Z,19.45
2022-10-17T09:48:59.038Z,19.52
2022-10-17T09:51:44.542Z,19.59
2022-10-17T09:54:52.107Z,19.65
2022-10-17T09:57:58.164Z,19.75
2022-10-17T10:00:51.616Z,19.80
2022-10-17T10:03:39.862Z,19.87
2022-10-17T10:06:25.099Z,20.05
2022-10-17T10:09:23.090Z,20.12
2022-10-17T10:12:18.228Z,20.01
2022-10-17T10:15:23.681Z,20.01
2022-10-17T10:18:25.997Z,20.02
2022-10-17T10:21:27.535Z,20.10
2022-10-17T10:24:13.952Z,20.11
2022-10-17T10:27:00.699Z,20.12
2022-10-17T10:29:51.793Z,20.09
2022-10-17T10:32:37.720Z,20.09
2022-10-17T10:35:24.226Z,20.11
2022-10-17T10:38:11.441Z,20.13
2022-10-17T10:41:17.884Z,20.15
2022-10-17T10:44:06.582Z,20.18
2022-10-17T10:47:27.932Z,20.28
2022-10-17T10:50:17.414Z,20.44
2022-10-17T10:53:24.291Z,20.40
2022-10-17T10:56:21.432Z,20.47
2022-10-17T10:59:26.703Z,20.52
2022-10-17T11:02:21.412Z,20.54
2022-10-17T11:05:10.573Z,20.60
2022-10-17T11:08:08.002Z,20.63
2022-10-17T11:11:05.321Z,20.66
2022-10-17T11:13:59.592Z,20.71
2022-10-17T11:17:05.022Z,20.69
2022-10-17T11:19:58.248Z,20.74
2022-10-17T11:22:48.251Z,20.79
2022-10-17T11:25:36.620Z,20.82
2022-10-17T11:28:25.510Z,20.85
2022-10-17T11:31:13.632Z,20.88
2022-10-17T11:33:49.805Z,20.90
2022-10-17T11:36:21.857Z,20.98
2022-10-17T11:38:52.478Z,20.97
2022-10-17T11:41:38.564Z,21.02
2022-10-17T11:44:21.313Z,21.06
2022-10-17T11:46:51.335Z,21.09
2022-10-17T11:49:25.092Z,21.14
2022-10-17T11:52:00.259Z,21.19
2022-10-17T11:54:30.270Z,21.23
2022-10-17T11:57:13.852Z,21.23
2022-10-17T12:00:32.610Z,21.29
2022-10-17T12:03:13.705Z,21.31
2022-10-17T12:05:50.046Z,21.39
2022-10-17T12:08:17.872Z,21.43
2022-10-17T12:11:00.984Z,21.48
2022-10-17T12:13:32.959Z,21.61
2022-10-17T12:16:18.950Z,21.62
2022-10-17T12:19:03.282Z,21.62
2022-10-17T12:21:55.445Z,21.64
2022-10-17T12:24:39.830Z,21.66
2022-10-17T12:27:23.940Z,21.73
2022-10-17T12:29:51.461Z,21.75
2022-10-17T12:32:18.150Z,21.76
2022-10-17T12:34:57.799Z,21.73
2022-10-17T12:37:46.498Z,21.77
2022-10-17T12:40:41.481Z,21.80
2022-10-17T12:43:18.736Z,21.79
2022-10-17T12:45:50.339Z,21.88
2022-10-17T12:48:39.088Z,21.91
2022-10-17T12:53:57.449Z,21.97
2022-10-17T12:56:48.732Z,22.04
2022-10-17T12:59:17.698Z,22.04
2022-10-17T13:01:48.046Z,21.99
2022-10-17T13:04:18.437Z,21.98
2022-10-17T13:06:54.456Z,21.99
2022-10-17T13:09:25.503Z,22.03
2022-10-17T13:11:53.174Z,22.03
2022-10-17T13:14:22.903Z,22.03
2022-10-17T13:16:57.460Z,22.01
2022-10-17T13:19:30.598Z,22.03
2022-10-17T13:21:59.827Z,22.04
2022-10-17T13:24:38.042Z,22.07
2022-10-17T13:27:05.897Z,22.03
2022-10-17T13:29:33.109Z,22.04
2022-10-17T13:32:02.769Z,22.04
2022-10-17T13:34:33.344Z,22.07
2022-10-17T13:37:05.980Z,22.08
2022-10-17T13:42:36.840Z,22.08
2022-10-17T13:45:20.643Z,22.04
2022-10-17T13:47:50.333Z,22.02
2022-10-17T13:50:44.963Z,22.02
2022-10-17T13:53:21.567Z,22.03
2022-10-17T13:56:27.283Z,22.04
2022-10-17T13:58:52.656Z,22.02
2022-10-17T14:01:26.053Z,21.95
2022-10-17T14:04:07.687Z,22.00
2022-10-17T14:06:51.312Z,21.97
2022-10-17T14:09:33.987Z,21.95
2022-10-17T14:12:00.920Z,22.00
2022-10-17T14:14:46.091Z,21.98
2022-10-17T14:17:21.679Z,21.96
2022-10-17T14:20:06.504Z,21.96
2022-10-17T14:22:41.137Z,21.93
2022-10-17T14:25:31.328Z,21.90
2022-10-17T14:28:08.829Z,21.86
2022-10-17T14:30:56.296Z,21.85
2022-10-17T14:33:32.095Z,21.81
2022-10-17T14:36:01.213Z,21.76
2022-10-17T14:38:28.575Z,21.75
2022-10-17T14:41:30.263Z,21.73
2022-10-17T14:43:55.875Z,21.66
2022-10-17T14:46:25.335Z,21.63
2022-10-17T14:48:54.934Z,21.59
2022-10-17T14:51:26.411Z,21.58
2022-10-17T14:54:14.277Z,21.56
2022-10-17T14:56:44.932Z,21.51
2022-10-17T14:59:21.554Z,21.50
2022-10-17T15:04:56.370Z,21.41
2022-10-17T15:07:51.032Z,21.38
2022-10-17T15:10:34.907Z,21.31
2022-10-17T15:15:58.988Z,21.23
2022-10-17T15:18:26.608Z,21.17
2022-10-17T15:21:04.895Z,21.15
2022-10-17T15:23:39.483Z,21.11
2022-10-17T15:26:19.924Z,21.05
2022-10-17T15:28:50.924Z,20.98
2022-10-17T15:31:20.032Z,20.93
2022-10-17T15:33:49.863Z,20.85
2022-10-17T15:36:30.520Z,20.77
2022-10-17T15:39:08.410Z,20.71
2022-10-17T15:41:35.236Z,20.63
2022-10-17T15:44:08.859Z,20.57
2022-10-17T15:46:40.006Z,20.53
2022-10-17T15:49:16.550Z,20.49
2022-10-17T15:51:44.402Z,20.42
2022-10-17T15:54:15.951Z,20.38
2022-10-17T15:56:55.152Z,20.29
2022-10-17T15:59:31.680Z,20.22
2022-10-17T16:02:05.129Z,20.15
2022-10-17T16:04:42.844Z,20.08
2022-10-17T16:07:13.298Z,20.02
2022-10-17T16:10:11.336Z,19.97
2022-10-17T16:12:41.532Z,19.87
2022-10-17T16:15:13.700Z,19.80
2022-10-17T16:17:47.149Z,19.73
2022-10-17T16:20:18.033Z,19.67
2022-10-17T16:22:53.877Z,19.60
2022-10-17T16:25:25.610Z,19.59
2022-10-17T16:27:58.887Z,19.60
2022-10-17T16:30:31.082Z,19.57
2022-10-17T16:32:59.250Z,19.53
2022-10-17T16:35:33.281Z,19.48
2022-10-17T16:38:08.358Z,19.39
2022-10-17T16:40:41.435Z,19.35
2022-10-17T16:43:14.444Z,19.33
2022-10-17T16:45:55.536Z,19.27
2022-10-17T16:48:29.819Z,19.21
2022-10-17T16:51:00.327Z,19.16
2022-10-17T16:53:30.694Z,19.09
2022-10-17T16:56:01.386Z,19.02
2022-10-17T16:58:34.253Z,18.94
2022-10-17T17:01:06.994Z,18.86
2022-10-17T17:03:59.319Z,18.77
2022-10-17T17:06:31.754Z,18.69
2022-10-17T17:08:59.518Z,18.64
2022-10-17T17:11:53.606Z,18.56
2022-10-17T17:14:24.255Z,18.50
2022-10-17T17:17:36.877Z,18.43
2022-10-17T17:20:11.657Z,18.34
2022-10-17T17:23:15.724Z,18.29
2022-10-17T17:25:46.813Z,18.22
2022-10-17T17:28:20.547Z,18.16
2022-10-17T17:30:49.150Z,18.07
2022-10-17T17:33:20.815Z,18.02
2022-10-17T17:36:01.484Z,17.97
2022-10-17T17:38:34.296Z,17.91
2022-10-17T17:41:06.181Z,17.87
2022-10-17T17:43:33.592Z,17.83
2022-10-17T17:46:04.973Z,17.81
2022-10-17T17:48:33.323Z,17.77
2022-10-17T17:51:29.952Z,17.74
2022-10-17T17:54:00.470Z,17.69
2022-10-17T17:56:31.538Z,17.65
2022-10-17T17:59:01.406Z,17.60
2022-10-17T18:01:29.494Z,17.54
2022-10-17T18:04:02.264Z,17.51
2022-10-17T18:06:39.981Z,17.42
2022-10-17T18:09:25.668Z,17.36
2022-10-17T18:11:57.252Z,17.27
2022-10-17T18:14:31.402Z,17.19
2022-10-17T18:17:08.488Z,17.10
2022-10-17T18:19:47.693Z,17.02
2022-10-17T18:22:46.720Z,16.92
2022-10-17T18:25:22.686Z,16.85
2022-10-17T18:27:57.837Z,16.75
2022-10-17T18:30:34.491Z,16.66
2022-10-17T18:33:05.049Z,16.60
2022-10-17T18:36:00.542Z,16.57
2022-10-17T18:38:33.881Z,16.50
2022-10-17T18:41:28.110Z,16.32
2022-10-17T18:44:06.222Z,16.30
2022-10-17T18:47:32.286Z,16.25
2022-10-17T18:50:05.552Z,16.17
2022-10-17T18:52:45.577Z,16.08
2022-10-17T18:55:22.370Z,16.08
2022-10-17T18:57:57.410Z,16.03
2022-10-17T19:00:31.629Z,16.02
2022-10-17T19:06:26.082Z,15.91
2022-10-17T19:09:03.409Z,15.85
2022-10-17T19:11:34.179Z,15.81
2022-10-17T19:17:33.871Z,15.70
2022-10-17T19:20:05.366Z,15.66
2022-10-17T19:22:40.133Z,15.62
2022-10-17T19:25:27.053Z,15.57
2022-10-17T19:28:27.273Z,15.51
2022-10-17T19:31:33.467Z,15.47
2022-10-17T19:34:03.257Z,15.44
2022-10-17T19:37:28.862Z,15.39
2022-10-17T19:42:59.717Z,15.28
2022-10-17T19:45:34.602Z,15.25
2022-10-17T19:48:05.546Z,15.20
2022-10-17T19:50:47.120Z,15.14
2022-10-17T19:53:15.551Z,15.11
2022-10-17T19:56:19.372Z,15.07
2022-10-17T19:59:28.106Z,15.05
2022-10-17T20:02:53.248Z,14.99
2022-10-17T20:05:26.024Z,14.96
2022-10-17T20:11:11.132Z,14.88
2022-10-17T20:13:39.127Z,14.82
2022-10-17T20:16:08.640Z,14.84
2022-10-17T20:18:38.336Z,14.82
2022-10-17T20:21:11.362Z,14.81
2022-10-17T20:23:40.813Z,14.76
2022-10-17T20:29:10.011Z,14.68
2022-10-17T20:32:06.239Z,14.66
2022-10-17T20:34:35.713Z,14.65
2022-10-17T20:37:14.713Z,14.63
2022-10-17T20:40:35.865Z,14.62
2022-10-17T20:43:08.389Z,14.62
2022-10-17T20:45:51.117Z,14.58
2022-10-17T20:48:41.655Z,14.57
2022-10-17T20:51:35.908Z,14.51
2022-10-17T20:54:11.846Z,14.45
2022-10-17T20:56:56.989Z,14.43
2022-10-17T20:59:32.374Z,14.38
2022-10-17T21:02:07.702Z,14.36
2022-10-17T21:05:08.181Z,14.37
2022-10-17T21:07:40.538Z,14.35
2022-10-17T21:10:34.372Z,14.33
2022-10-17T21:13:41.169Z,14.30
2022-10-17T21:17:08.168Z,14.25
2022-10-17T21:20:03.256Z,14.21
2022-10-17T21:23:08.828Z,14.20
2022-10-17T21:25:40.813Z,14.15
2022-10-17T21:28:09.860Z,14.11
2022-10-17T21:30:48.344Z,14.08
2022-10-17T21:33:20.504Z,14.07
2022-10-17T21:35:50.379Z,14.08
2022-10-17T21:38:22.154Z,14.05
2022-10-17T21:40:55.370Z,14.04
2022-10-17T21:43:27.920Z,14.08
2022-10-17T21:46:25.408Z,14.01
2022-10-17T21:49:21.085Z,13.98
2022-10-17T21:52:28.978Z,13.93
2022-10-17T21:54:58.180Z,13.91
2022-10-17T21:57:35.857Z,13.88
2022-10-17T22:00:08.449Z,13.90
2022-10-17T22:02:48.226Z,13.85
2022-10-17T22:05:20.407Z,13.88
2022-10-17T22:07:51.980Z,13.84
2022-10-17T22:10:29.725Z,13.85
2022-10-17T22:13:02.194Z,13.78
2022-10-17T22:16:03.583Z,13.74
2022-10-17T22:18:37.687Z,13.73
2022-10-17T22:21:12.324Z,13.74
2022-10-17T22:23:41.242Z,13.70
2022-10-17T22:26:10.527Z,13.71
2022-10-17T22:28:43.265Z,13.70
2022-10-17T22:31:20.944Z,13.69
2022-10-17T22:33:51.488Z,13.71
2022-10-17T22:36:20.225Z,13.67
2022-10-17T22:38:49.951Z,13.69
2022-10-17T22:41:18.775Z,13.66
2022-10-17T22:43:50.846Z,13.64
2022-10-17T22:46:20.435Z,13.62
2022-10-17T22:48:58.643Z,13.54
2022-10-17T22:51:26.692Z,13.50
2022-10-17T22:53:56.433Z,13.49
2022-10-17T22:56:24.101Z,13.44
2022-10-17T22:58:54.218Z,13.40
2022-10-17T23:01:27.843Z,13.39
2022-10-17T23:04:51.093Z,13.33
2022-10-17T23:07:23.504Z,13.28
2022-10-17T23:09:53.956Z,13.24
2022-10-17T23:12:25.427Z,13.22
2022-10-17T23:15:00.222Z,13.18
2022-10-17T23:17:33.810Z,13.14
2022-10-17T23:20:01.668Z,13.16
2022-10-17T23:22:33.303Z,13.10
2022-10-17T23:25:03.577Z,13.05
2022-10-17T23:27:58.794Z,13.01
2022-10-17T23:30:33.561Z,13.05
2022-10-17T23:33:01.643Z,13.02
2022-10-17T23:35:30.572Z,12.99
2022-10-17T23:41:22.539Z,12.94
2022-10-17T23:43:54.927Z,12.90
2022-10-17T23:46:32.266Z,12.91
2022-10-17T23:48:59.857Z,12.88
2022-10-17T23:51:32.794Z,12.90
2022-10-17T23:54:10.632Z,12.89
2022-10-17T23:56:44.691Z,12.86
2022-10-17T23:59:16.789Z,12.84
